Latest Coastal Weather Observations for Coolangatta (QLD)

IDN60701

Issued at 11:41 am EST Sunday 30 August 2015 (issued every 10 minutes, with the page automatically refreshed every 10 minutes)

About coastal observations | Map of coastal stations | Coastal observations for NSW | Marine services | Other Formats
Station Details ID: 040717 Name: COOLANGATTA Lat: -28.17 Lon: 153.51 Height: 4.0 m
Data from the previous 72 hours. | See also: Recent months at Coolangatta (QLD)
Date/Time
EST
Temp

°C
Wind Pressure Rain
since 9am
mm
Weather Cloud Vis
km
Sea
Height
m
Swell
Dir
 
Speed
knots
Gust
knots
hPa Trend Height
m
Period
s
Dir
30/11:30am 20.4 SSW 10 15 1015.6 - 0.0 - - 10 - - - -
30/11:00am 20.0 SSW 9 13 1016.1 - 0.0 - - 10 - - - -
30/10:30am 19.6 SW 8 13 1016.6 - 0.0 - Partly cloudy 10 - - - -
30/10:00am 17.6 SW 6 9 1017.0 - 0.0 - Cloudy 10 - - - -
30/09:30am 16.9 SW 7 11 1017.1 - 0.0 - Cloudy 10 - - - -
30/09:00am 16.1 S 6 7 1017.0 - 4.4 - Cloudy 10 - - - -
30/08:30am 16.0 S 5 5 1017.1 - 4.4 - Cloudy 10 - - - -
30/08:00am 15.5 CALM 0 0 1017.0 - 4.4 - Cloudy 10 - - - -
30/07:30am 15.6 WSW 5 6 1016.7 - 4.4 - Partly cloudy 10 - - - -
30/07:00am 15.1 CALM 0 0 1016.8 - 4.4 - Partly cloudy 10 - - - -
30/06:30am 14.5 WNW 4 4 1016.4 - 4.4 - Partly cloudy 10 - - - -
30/06:00am 14.6 W 2 4 1016.3 - 4.4 - Mostly cloudy 10 - - - -
30/05:30am 14.8 WSW 4 4 1015.9 - 4.4 - Partly cloudy 10 - - - -
30/05:00am 15.2 SW 3 4 1015.5 - 4.4 - Partly cloudy 10 - - - -
30/04:30am 15.5 WSW 5 6 1015.6 - 4.4 - Partly cloudy 10 - - - -
30/04:00am 15.5 WSW 6 7 1016.0 - 4.4 - Partly cloudy 10 - - - -
30/03:30am 15.6 W 4 6 1016.0 - 4.4 - Cloudy 10 - - - -
30/03:00am 15.4 NW 6 8 1016.6 - 4.4 Drizzle Cloudy 10 - - - -
30/02:30am 15.4 WSW 2 4 1016.6 - 4.4 - Partly cloudy 10 - - - -
30/02:00am 15.5 NW 4 5 1016.8 - 4.4 - Partly cloudy 10 - - - -
30/01:30am 15.5 WNW 5 7 1017.6 - 4.4 - Cloudy 10 - - - -
30/01:00am 15.2 NW 4 5 1017.9 - 4.4 - Partly cloudy 10 - - - -
30/12:30am 15.3 W 6 7 1018.3 - 4.2 - Partly cloudy 10 - - - -
30/12:00am 15.6 WSW 4 5 1018.6 - 4.0 Showers Cloudy 10 - - - -
 
Date/Time
EST
Temp

°C
Wind Pressure Rain
since 9am
mm
Weather Cloud Vis
km
Sea
Height
m
Swell
Dir
 
Speed
knots
Gust
knots
hPa Trend Height
m
Period
s
Dir
29/11:30pm 15.5 WSW 3 4 1018.6 - 4.0 - Partly cloudy 10 - - - -
29/11:00pm 15.4 W 5 6 1018.9 - 4.0 - Partly cloudy 10 - - - -
29/10:59pm 15.4 W 5 6 1018.9 - 4.0 - Partly cloudy 10 - - - -
29/10:30pm 15.4 W 5 7 1018.9 - 3.8 - Partly cloudy 10 - - - -
29/10:27pm 15.4 W 6 7 1019.0 - 3.8 - Partly cloudy 10 - - - -
29/10:00pm 15.4 W 6 7 1019.3 - 3.4 - Cloudy 10 - - - -
29/09:30pm 15.8 WNW 6 8 1019.4 - 3.2 - Partly cloudy 10 - - - -
29/09:04pm 15.9 NNW 6 9 1019.3 - 2.6 - Partly cloudy 10 - - - -
29/09:00pm 15.8 NNW 5 6 1019.5 - 2.6 Rain Cloudy 9 - - - -
29/08:51pm 15.8 NNW 3 5 1019.7 - 2.0 - Partly cloudy 6 - - - -
29/08:30pm 15.8 WNW 5 6 1020.1 - 1.2 - Partly cloudy 10 - - - -
29/08:00pm 16.1 WNW 5 6 1020.0 - 0.6 - Partly cloudy 10 - - - -
29/07:30pm 16.8 NW 4 5 1019.7 - 0.2 - Partly cloudy 10 - - - -
29/07:00pm 17.3 NNW 6 7 1020.0 - 0.2 - Partly cloudy 10 - - - -
29/06:30pm 18.8 N 8 10 1019.9 - 0.0 - Cloudy 10 - - - -
29/06:00pm 19.5 NNE 5 7 1019.6 - 0.0 - Cloudy 10 - - - -
29/05:30pm 19.7 NE 6 8 1019.2 - 0.0 - Partly cloudy 10 - - - -
29/05:00pm 19.7 NE 7 8 1018.9 - 0.0 - Partly cloudy 10 - - - -
29/04:30pm 19.9 NE 7 9 1018.6 - 0.0 - Partly cloudy 10 - - - -
29/04:00pm 20.2 NE 8 11 1018.6 - 0.0 - - 10 - - - -
29/03:30pm 20.3 NE 8 11 1018.8 - 0.0 - Partly cloudy 10 - - - -
29/03:00pm 20.6 NE 9 12 1019.0 - 0.0 - Cloudy 10 - - - -
29/02:30pm 20.3 NE 8 11 1019.4 - 0.0 - Cloudy 10 - - - -
29/02:00pm 20.8 ENE 7 10 1019.8 - 0.0 - Cloudy 10 - - - -
29/01:30pm 20.9 ENE 8 11 1020.1 - 0.0 - Partly cloudy 10 - - - -
29/01:00pm 21.2 ENE 9 11 1020.5 - 0.0 - Partly cloudy 10 - - - -
29/12:30pm 20.6 ENE 9 11 1021.0 - 0.0 - Partly cloudy 10 - - - -
29/12:00pm 21.4 NE 9 11 1021.6 - 0.0 - Partly cloudy 10 - - - -
29/11:30am 21.7 ENE 8 11 1022.0 - 0.0 - Partly cloudy 10 - - - -
29/11:00am 21.5 ENE 7 10 1022.5 - 0.0 - - 10 - - - -
29/10:30am 21.6 NE 7 10 1022.8 - 0.0 - - 10 - - - -
29/10:00am 20.4 ESE 6 9 1022.9 - 0.0 - - 10 - - - -
29/09:30am 20.4 SSE 7 9 1022.9 - 0.0 - - 10 - - - -
29/09:00am 19.6 S 7 9 1023.1 - 0.2 - Partly cloudy 10 - - - -
29/08:30am 18.6 SSE 5 7 1023.1 - 0.2 - - 10 - - - -
29/08:00am 16.4 SSE 3 4 1023.0 - 0.2 - - 10 - - - -
29/07:30am 14.3 S 1 4 1022.9 - 0.2 - - 10 - - - -
29/07:00am 12.3 CALM 0 3 1022.8 - 0.2 - - 10 - - - -
29/06:30am 11.6 SSW 3 4 1022.4 - 0.2 - - 10 - - - -
29/06:00am 10.9 SW 3 4 1022.1 - 0.2 - Mostly cloudy 10 - - - -
29/05:30am 11.2 SSE 4 5 1021.9 - 0.2 - Partly cloudy 10 - - - -
29/05:00am 10.7 SW 4 5 1021.5 - 0.2 - - 10 - - - -
29/04:30am 10.8 SSW 3 4 1021.5 - 0.2 - - 10 - - - -
29/04:00am 10.8 SSW 3 4 1021.6 - 0.2 - - 10 - - - -
29/03:30am 11.0 SW 4 4 1021.6 - 0.2 - - 10 - - - -
29/03:00am 11.1 CALM 0 0 1021.9 - 0.2 - - 10 - - - -
29/02:30am 11.0 SSW 2 5 1021.8 - 0.2 - - 10 - - - -
29/02:00am 11.2 S 4 6 1021.8 - 0.2 - - 10 - - - -
29/01:30am 11.8 SW 4 5 1022.0 - 0.2 - - 10 - - - -
29/01:00am 11.5 SW 3 4 1022.2 - 0.2 - - 10 - - - -
29/12:30am 12.2 SSW 3 4 1022.5 - 0.2 - - 10 - - - -
29/12:00am 12.8 SW 4 7 1022.5 - 0.2 - - 10 - - - -
 
Date/Time
EST
Temp

°C
Wind Pressure Rain
since 9am
mm
Weather Cloud Vis
km
Sea
Height
m
Swell
Dir
 
Speed
knots
Gust
knots
hPa Trend Height
m
Period
s
Dir
28/11:30pm 12.7 SW 5 7 1022.2 - 0.2 - - 10 - - - -
28/11:00pm 12.7 SW 3 5 1022.3 - 0.2 - - 10 - - - -
28/10:30pm 13.1 SSW 4 5 1022.5 - 0.2 - - 10 - - - -
28/10:00pm 13.8 SW 5 6 1022.6 - 0.2 - - 10 - - - -
28/09:30pm 13.8 CALM 0 0 1022.7 - 0.2 - - 10 - - - -
28/09:00pm 14.1 SSW 2 4 1022.7 - 0.2 - - 10 - - - -
28/08:30pm 14.7 CALM 0 2 1022.5 - 0.2 - Partly cloudy 10 - - - -
28/08:00pm 15.5 SW 3 5 1022.2 - 0.2 - Partly cloudy 10 - - - -
28/07:30pm 15.5 WSW 7 8 1021.8 - 0.2 - Partly cloudy 10 - - - -
28/07:00pm 15.5 WSW 8 10 1021.2 - 0.2 - - 10 - - - -
28/06:30pm 15.6 WSW 6 7 1020.7 - 0.2 - - 10 - - - -
28/06:00pm 16.2 SE 1 3 1020.4 - 0.2 - - 10 - - - -
28/05:30pm 18.4 ENE 6 7 1020.1 - 0.2 - - 10 - - - -
28/05:00pm 19.2 E 7 9 1019.8 - 0.2 - - 10 - - - -
28/04:30pm 20.0 ESE 7 10 1019.7 - 0.2 - - 10 - - - -
28/04:00pm 20.4 E 8 13 1019.3 - 0.2 - - 10 - - - -
28/03:30pm 20.8 E 10 13 1019.0 - 0.2 - - 10 - - - -
28/03:00pm 21.4 E 9 11 1018.8 - 0.2 - - 10 - - - -
28/02:30pm 21.5 E 8 11 1018.9 - 0.2 - - 10 - - - -
28/02:00pm 21.6 E 8 11 1019.0 - 0.2 - - 10 - - - -
28/01:30pm 21.1 ENE 8 11 1019.2 - 0.2 - - 10 - - - -
28/01:00pm 21.2 ENE 9 11 1019.6 - 0.2 - - 10 - - - -
28/12:30pm 21.4 NE 8 11 1020.1 - 0.2 - - 10 - - - -
28/12:00pm 20.7 NNE 10 12 1020.4 - 0.2 Recent precip. - 10 - - - -
28/11:30am 21.3 N 9 13 1020.7 - 0.2 - - 10 - - - -
28/11:00am 21.7 SSE 7 10 1021.1 - 0.0 - Partly cloudy 10 - - - -
28/10:30am 21.3 SSE 7 10 1021.5 - 0.0 - Partly cloudy 10 - - - -
28/10:00am 20.8 SSW 4 7 1021.8 - 0.0 - Partly cloudy 10 - - - -
28/09:30am 18.4 SW 3 5 1022.0 - 0.0 - Partly cloudy 10 - - - -
28/09:00am 17.6 SW 3 4 1021.9 - 2.0 Rain Mostly cloudy 10 - - - -
28/08:30am 17.0 SSW 5 6 1021.7 - 2.0 - Partly cloudy 10 - - - -
28/08:00am 17.0 S 2 5 1021.8 - 2.0 - Partly cloudy 10 - - - -
28/07:30am 16.4 SSE 3 4 1021.3 - 2.0 - Partly cloudy 10 - - - -
28/07:00am 16.0 SSE 5 7 1020.7 - 2.0 - Cloudy 10 - - - -
28/06:30am 16.0 CALM 0 0 1021.0 - 2.0 - Partly cloudy 10 - - - -
28/06:00am 15.9 CALM 0 0 1020.6 - 2.0 Rain Cloudy 10 - - - -
28/05:30am 15.9 SSE 4 7 1020.1 - 2.0 - Partly cloudy 10 - - - -
28/05:00am 15.8 SSE 4 6 1020.0 - 1.8 - Partly cloudy 10 - - - -
28/04:30am 15.9 SE 2 4 1019.7 - 1.8 - Partly cloudy 10 - - - -
28/04:00am 16.0 E 4 5 1019.4 - 1.8 - Partly cloudy 10 - - - -
28/03:30am 16.1 NNE 3 5 1019.2 - 1.8 - Partly cloudy 10 - - - -
28/03:00am 16.4 NNW 5 6 1019.5 - 1.8 - Cloudy 10 - - - -
28/02:30am 16.6 NNW 6 7 1019.8 - 1.8 - Partly cloudy 10 - - - -
28/02:00am 16.7 W 3 5 1019.6 - 1.8 - Partly cloudy 10 - - - -
28/01:30am 17.0 W 7 9 1020.1 - 1.8 - Cloudy 10 - - - -
28/01:00am 16.4 W 6 7 1020.4 - 1.8 - Partly cloudy 10 - - - -
28/12:30am 16.4 W 6 8 1020.2 - 1.8 - Partly cloudy 10 - - - -
28/12:00am 16.0 WSW 6 8 1020.6 - 1.8 Drizzle Cloudy 10 - - - -
 
Date/Time
EST
Temp

°C
Wind Pressure Rain
since 9am
mm
Weather Cloud Vis
km
Sea
Height
m
Swell
Dir
 
Speed
knots
Gust
knots
hPa Trend Height
m
Period
s
Dir
27/11:30pm 15.8 WSW 5 8 1021.0 - 1.8 - Partly cloudy 10 - - - -
27/11:00pm 15.6 W 6 8 1021.0 - 1.8 - Partly cloudy 10 - - - -
27/10:30pm 14.8 W 4 5 1021.0 - 1.8 - Partly cloudy 10 - - - -
27/10:00pm 14.8 NW 4 6 1021.0 - 1.8 - Partly cloudy 10 - - - -
27/09:30pm 15.1 NNW 4 5 1020.9 - 1.8 - Cloudy 10 - - - -
27/09:00pm 15.1 WNW 5 6 1021.0 - 1.8 - Mostly cloudy 10 - - - -
27/08:30pm 15.2 WNW 4 5 1020.6 - 1.8 - - 10 - - - -
27/08:00pm 15.3 NNW 5 7 1020.5 - 1.8 - - 10 - - - -
27/07:30pm 15.4 NNW 6 7 1020.4 - 1.8 - - 10 - - - -
27/07:00pm 15.3 NNW 5 6 1020.1 - 1.8 - Partly cloudy 10 - - - -
27/06:30pm 14.9 WNW 2 5 1020.0 - 1.8 - Partly cloudy 10 - - - -
27/06:00pm 14.6 WNW 5 6 1020.0 - 1.6 Showers Cloudy 10 - - - -
27/05:30pm 14.6 W 4 6 1019.8 - 1.6 - Partly cloudy 10 - - - -
27/05:00pm 14.9 WNW 4 6 1020.0 - 1.6 - Partly cloudy 10 - - - -
27/04:30pm 15.2 WNW 4 5 1020.0 - 1.0 - Partly cloudy 10 - - - -
27/04:00pm 15.7 WNW 7 11 1019.9 - 0.8 - Partly cloudy 10 - - - -
27/03:30pm 17.5 WSW 5 7 1019.3 - 0.6 - Partly cloudy 10 - - - -
27/03:00pm 18.5 WNW 4 6 1019.7 - 0.2 Showers Mostly cloudy 10 - - - -
27/02:30pm 19.2 WNW 4 5 1019.4 - 0.0 - Cloudy 10 - - - -
27/02:00pm 20.4 SE 4 6 1018.6 - 0.0 - Partly cloudy 10 - - - -
27/01:30pm 20.7 SE 6 8 1018.7 - 0.0 - Partly cloudy 10 - - - -
27/01:00pm 21.0 SSE 5 7 1019.0 - 0.0 - Partly cloudy 10 - - - -
27/12:30pm 21.2 SSE 6 8 1019.5 - 0.0 - Partly cloudy 10 - - - -
27/12:00pm 20.6 S 3 7 1020.2 - 0.0 Showers Cloudy 10 - - - -

Other Formats:

Comma delimited format used in spreadsheet applications
http://www.bom.gov.au/fwo/IDN60701/IDN60701.94592.axf

JavaScript Object Notation format (JSON) in row-major order
http://www.bom.gov.au/fwo/IDN60701/IDN60701.94592.json